KGYR/GYR METAR and TAF weather

Enter ICAO airport designator
Station Type Date Time Source
KGYR METAR 2021/05/10 21:47 UTC NOAA

KGYR 102147Z 27011KT 10SM SKC 34/M07 A2975


Station Type Date Time Source
KGYR Decoded METAR 2021/05/10 21:47 UTC NOAA

Goodyear Municipal, AZ, United States (KGYR) 33-25N 112-23W
May 10, 2021 - 05:47 PM EDT / 2021.05.10 2147 UTC
Wind: from the W (270 degrees) at 13 MPH (11 KT):0
Visibility: 10 mile(s):0
Sky conditions: clear
Temperature: 93 F (34 C)
Dew Point: 19 F (-7 C)
Relative Humidity: 6%
Pressure (altimeter): 29.75 in. Hg (1007 hPa)
ob: KGYR 102147Z 27011KT 10SM SKC 34/M07 A2975
cycle: 22

Station Type Date Time Source
KGYR TAF UTC NOAA

Error!

Example: see airport list